sensor_id;sensor_type;location;lat;lon;timestamp;P1;durP1;ratioP1;P2;durP2;ratioP2
72791;SDS011;60907;53.268;8.764;2022-07-10T00:00:13;3.70;;;0.60;;
72791;SDS011;60907;53.268;8.764;2022-07-10T00:02:39;4.05;;;1.67;;
72791;SDS011;60907;53.268;8.764;2022-07-10T00:07:32;2.00;;;0.38;;
72791;SDS011;60907;53.268;8.764;2022-07-10T00:09:57;5.88;;;0.63;;
72791;SDS011;60907;53.268;8.764;2022-07-10T00:12:23;2.20;;;0.50;;
72791;SDS011;60907;53.268;8.764;2022-07-10T00:14:48;2.15;;;0.43;;
72791;SDS011;60907;53.268;8.764;2022-07-10T00:17:13;4.38;;;0.68;;
72791;SDS011;60907;53.268;8.764;2022-07-10T00:19:39;4.28;;;0.50;;
72791;SDS011;60907;53.268;8.764;2022-07-10T00:22:04;2.42;;;0.65;;
72791;SDS011;60907;53.268;8.764;2022-07-10T00:24:31;3.58;;;0.40;;
72791;SDS011;60907;53.268;8.764;2022-07-10T00:26:56;2.70;;;0.85;;
72791;SDS011;60907;53.268;8.764;2022-07-10T00:29:22;3.05;;;0.45;;
72791;SDS011;60907;53.268;8.764;2022-07-10T00:31:48;5.22;;;0.60;;
72791;SDS011;60907;53.268;8.764;2022-07-10T00:34:13;5.10;;;0.63;;
72791;SDS011;60907;53.268;8.764;2022-07-10T00:36:38;3.80;;;0.38;;
72791;SDS011;60907;53.268;8.764;2022-07-10T00:39:04;3.65;;;0.60;;
72791;SDS011;60907;53.268;8.764;2022-07-10T00:41:29;4.32;;;1.20;;
72791;SDS011;60907;53.268;8.764;2022-07-10T00:43:56;2.55;;;0.45;;
72791;SDS011;60907;53.268;8.764;2022-07-10T00:46:26;5.45;;;0.70;;
72791;SDS011;60907;53.268;8.764;2022-07-10T00:48:53;3.47;;;0.40;;
72791;SDS011;60907;53.268;8.764;2022-07-10T00:51:20;5.85;;;0.70;;
72791;SDS011;60907;53.268;8.764;2022-07-10T00:53:47;3.70;;;0.50;;
72791;SDS011;60907;53.268;8.764;2022-07-10T00:58:40;4.80;;;0.90;;
72791;SDS011;60907;53.268;8.764;2022-07-10T01:01:06;3.03;;;0.32;;
72791;SDS011;60907;53.268;8.764;2022-07-10T01:03:32;1.13;;;0.30;;
72791;SDS011;60907;53.268;8.764;2022-07-10T01:05:57;4.38;;;0.30;;
72791;SDS011;60907;53.268;8.764;2022-07-10T01:08:23;3.33;;;0.90;;
72791;SDS011;60907;53.268;8.764;2022-07-10T01:10:49;3.63;;;0.60;;
72791;SDS011;60907;53.268;8.764;2022-07-10T01:13:15;1.98;;;0.47;;
72791;SDS011;60907;53.268;8.764;2022-07-10T01:15:40;2.70;;;0.38;;
72791;SDS011;60907;53.268;8.764;2022-07-10T01:18:06;2.75;;;0.52;;
72791;SDS011;60907;53.268;8.764;2022-07-10T01:20:32;5.18;;;1.15;;
72791;SDS011;60907;53.268;8.764;2022-07-10T01:22:58;1.50;;;0.43;;
72791;SDS011;60907;53.268;8.764;2022-07-10T01:25:24;1.00;;;0.20;;
72791;SDS011;60907;53.268;8.764;2022-07-10T01:27:50;2.45;;;0.40;;
72791;SDS011;60907;53.268;8.764;2022-07-10T01:30:16;5.10;;;0.50;;
72791;SDS011;60907;53.268;8.764;2022-07-10T01:32:44;3.53;;;0.60;;
72791;SDS011;60907;53.268;8.764;2022-07-10T01:35:10;3.13;;;0.40;;
72791;SDS011;60907;53.268;8.764;2022-07-10T01:37:36;5.63;;;0.45;;
72791;SDS011;60907;53.268;8.764;2022-07-10T01:40:02;6.05;;;0.88;;
72791;SDS011;60907;53.268;8.764;2022-07-10T01:42:27;4.93;;;0.40;;
72791;SDS011;60907;53.268;8.764;2022-07-10T01:44:53;4.70;;;1.00;;
72791;SDS011;60907;53.268;8.764;2022-07-10T01:47:18;3.35;;;0.60;;
72791;SDS011;60907;53.268;8.764;2022-07-10T01:49:44;2.70;;;0.57;;
72791;SDS011;60907;53.268;8.764;2022-07-10T01:52:09;4.38;;;1.45;;
72791;SDS011;60907;53.268;8.764;2022-07-10T01:54:35;6.20;;;0.63;;
72791;SDS011;60907;53.268;8.764;2022-07-10T01:57:00;3.83;;;0.43;;
72791;SDS011;60907;53.268;8.764;2022-07-10T01:59:26;2.53;;;0.40;;
72791;SDS011;60907;53.268;8.764;2022-07-10T02:01:51;4.35;;;0.75;;
72791;SDS011;60907;53.268;8.764;2022-07-10T02:04:17;3.30;;;0.40;;
72791;SDS011;60907;53.268;8.764;2022-07-10T02:07:01;4.43;;;0.50;;
72791;SDS011;60907;53.268;8.764;2022-07-10T02:09:26;8.70;;;0.65;;
72791;SDS011;60907;53.268;8.764;2022-07-10T02:11:51;4.38;;;0.50;;
72791;SDS011;60907;53.268;8.764;2022-07-10T02:14:17;2.93;;;0.30;;
72791;SDS011;60907;53.268;8.764;2022-07-10T02:16:42;5.70;;;0.75;;
72791;SDS011;60907;53.268;8.764;2022-07-10T02:21:34;2.50;;;0.40;;
72791;SDS011;60907;53.268;8.764;2022-07-10T02:24:00;1.73;;;0.60;;
72791;SDS011;60907;53.268;8.764;2022-07-10T02:26:25;5.18;;;0.40;;
72791;SDS011;60907;53.268;8.764;2022-07-10T02:28:51;5.55;;;1.60;;
72791;SDS011;60907;53.268;8.764;2022-07-10T02:31:16;7.43;;;1.38;;
72791;SDS011;60907;53.268;8.764;2022-07-10T02:33:42;3.90;;;1.13;;
72791;SDS011;60907;53.268;8.764;2022-07-10T02:36:07;3.70;;;0.52;;
72791;SDS011;60907;53.268;8.764;2022-07-10T02:38:32;1.90;;;0.63;;
72791;SDS011;60907;53.268;8.764;2022-07-10T02:40:58;4.47;;;0.95;;
72791;SDS011;60907;53.268;8.764;2022-07-10T02:43:23;6.93;;;0.87;;
72791;SDS011;60907;53.268;8.764;2022-07-10T02:45:49;6.55;;;1.00;;
72791;SDS011;60907;53.268;8.764;2022-07-10T02:48:14;3.80;;;0.55;;
72791;SDS011;60907;53.268;8.764;2022-07-10T02:50:40;4.72;;;1.40;;
72791;SDS011;60907;53.268;8.764;2022-07-10T02:53:06;3.53;;;0.80;;
72791;SDS011;60907;53.268;8.764;2022-07-10T02:55:31;6.22;;;0.60;;
72791;SDS011;60907;53.268;8.764;2022-07-10T02:57:58;4.55;;;0.63;;
72791;SDS011;60907;53.268;8.764;2022-07-10T03:00:24;5.63;;;0.90;;
72791;SDS011;60907;53.268;8.764;2022-07-10T03:02:51;3.28;;;0.70;;
72791;SDS011;60907;53.268;8.764;2022-07-10T03:05:17;3.70;;;0.60;;
72791;SDS011;60907;53.268;8.764;2022-07-10T03:07:42;5.03;;;0.52;;
72791;SDS011;60907;53.268;8.764;2022-07-10T03:10:08;7.22;;;0.50;;
72791;SDS011;60907;53.268;8.764;2022-07-10T03:12:34;5.93;;;1.05;;
72791;SDS011;60907;53.268;8.764;2022-07-10T03:14:59;3.33;;;1.00;;
72791;SDS011;60907;53.268;8.764;2022-07-10T03:17:25;4.40;;;0.68;;
72791;SDS011;60907;53.268;8.764;2022-07-10T03:19:50;6.55;;;0.73;;
72791;SDS011;60907;53.268;8.764;2022-07-10T03:22:15;4.80;;;0.80;;
72791;SDS011;60907;53.268;8.764;2022-07-10T03:24:41;6.22;;;0.80;;
72791;SDS011;60907;53.268;8.764;2022-07-10T03:27:08;4.88;;;0.57;;
72791;SDS011;60907;53.268;8.764;2022-07-10T03:29:34;7.72;;;0.90;;
72791;SDS011;60907;53.268;8.764;2022-07-10T03:31:59;1.55;;;0.70;;
72791;SDS011;60907;53.268;8.764;2022-07-10T03:34:25;4.57;;;0.80;;
72791;SDS011;60907;53.268;8.764;2022-07-10T03:36:50;5.05;;;1.00;;
72791;SDS011;60907;53.268;8.764;2022-07-10T03:39:16;3.83;;;0.77;;
72791;SDS011;60907;53.268;8.764;2022-07-10T03:41:42;6.45;;;1.13;;
72791;SDS011;60907;53.268;8.764;2022-07-10T03:44:07;1.67;;;0.40;;
72791;SDS011;60907;53.268;8.764;2022-07-10T03:46:33;3.83;;;0.52;;
72791;SDS011;60907;53.268;8.764;2022-07-10T03:48:58;5.35;;;0.95;;
72791;SDS011;60907;53.268;8.764;2022-07-10T03:51:23;4.70;;;0.80;;
72791;SDS011;60907;53.268;8.764;2022-07-10T03:53:49;4.13;;;0.60;;
72791;SDS011;60907;53.268;8.764;2022-07-10T03:56:14;3.03;;;0.80;;
72791;SDS011;60907;53.268;8.764;2022-07-10T04:01:25;9.93;;;1.10;;
72791;SDS011;60907;53.268;8.764;2022-07-10T04:03:50;3.45;;;0.60;;
72791;SDS011;60907;53.268;8.764;2022-07-10T04:06:16;5.22;;;0.70;;
72791;SDS011;60907;53.268;8.764;2022-07-10T04:08:41;8.55;;;0.88;;
72791;SDS011;60907;53.268;8.764;2022-07-10T04:11:06;4.27;;;1.00;;
72791;SDS011;60907;53.268;8.764;2022-07-10T04:13:32;3.83;;;0.77;;
72791;SDS011;60907;53.268;8.764;2022-07-10T04:15:57;5.47;;;0.90;;
72791;SDS011;60907;53.268;8.764;2022-07-10T04:18:22;7.10;;;1.10;;
72791;SDS011;60907;53.268;8.764;2022-07-10T04:20:48;6.22;;;1.08;;
72791;SDS011;60907;53.268;8.764;2022-07-10T04:23:13;4.50;;;1.10;;
72791;SDS011;60907;53.268;8.764;2022-07-10T04:25:39;6.55;;;0.95;;
72791;SDS011;60907;53.268;8.764;2022-07-10T04:28:04;3.13;;;0.70;;
72791;SDS011;60907;53.268;8.764;2022-07-10T04:30:29;3.10;;;0.70;;
72791;SDS011;60907;53.268;8.764;2022-07-10T04:32:55;5.38;;;0.85;;
72791;SDS011;60907;53.268;8.764;2022-07-10T04:35:20;6.78;;;0.82;;
72791;SDS011;60907;53.268;8.764;2022-07-10T04:37:46;2.00;;;0.50;;
72791;SDS011;60907;53.268;8.764;2022-07-10T04:40:11;4.22;;;0.60;;
72791;SDS011;60907;53.268;8.764;2022-07-10T04:42:37;2.17;;;0.52;;
72791;SDS011;60907;53.268;8.764;2022-07-10T04:45:02;6.10;;;1.88;;
72791;SDS011;60907;53.268;8.764;2022-07-10T04:47:28;5.45;;;0.90;;
72791;SDS011;60907;53.268;8.764;2022-07-10T04:49:53;4.22;;;0.70;;
72791;SDS011;60907;53.268;8.764;2022-07-10T04:52:19;3.83;;;1.00;;
72791;SDS011;60907;53.268;8.764;2022-07-10T04:54:44;5.53;;;0.80;;
72791;SDS011;60907;53.268;8.764;2022-07-10T04:57:09;4.60;;;0.80;;
72791;SDS011;60907;53.268;8.764;2022-07-10T04:59:35;4.22;;;0.90;;
72791;SDS011;60907;53.268;8.764;2022-07-10T05:02:00;5.30;;;0.75;;
72791;SDS011;60907;53.268;8.764;2022-07-10T05:04:26;3.10;;;0.77;;
72791;SDS011;60907;53.268;8.764;2022-07-10T05:06:51;6.25;;;0.93;;
72791;SDS011;60907;53.268;8.764;2022-07-10T05:09:16;1.83;;;0.75;;
72791;SDS011;60907;53.268;8.764;2022-07-10T05:11:45;5.05;;;0.70;;
72791;SDS011;60907;53.268;8.764;2022-07-10T05:14:10;4.38;;;1.00;;
72791;SDS011;60907;53.268;8.764;2022-07-10T05:16:36;5.03;;;1.05;;
72791;SDS011;60907;53.268;8.764;2022-07-10T05:19:01;3.08;;;0.95;;
72791;SDS011;60907;53.268;8.764;2022-07-10T05:21:27;4.07;;;0.93;;
72791;SDS011;60907;53.268;8.764;2022-07-10T05:23:52;7.47;;;0.98;;
72791;SDS011;60907;53.268;8.764;2022-07-10T05:26:18;6.72;;;1.08;;
72791;SDS011;60907;53.268;8.764;2022-07-10T05:28:43;4.03;;;0.98;;
72791;SDS011;60907;53.268;8.764;2022-07-10T05:31:08;5.18;;;1.30;;
72791;SDS011;60907;53.268;8.764;2022-07-10T05:33:34;4.50;;;1.00;;
72791;SDS011;60907;53.268;8.764;2022-07-10T05:35:59;6.50;;;1.13;;
72791;SDS011;60907;53.268;8.764;2022-07-10T05:38:25;7.43;;;1.35;;
72791;SDS011;60907;53.268;8.764;2022-07-10T05:40:50;8.38;;;1.15;;
72791;SDS011;60907;53.268;8.764;2022-07-10T05:43:18;7.50;;;1.48;;
72791;SDS011;60907;53.268;8.764;2022-07-10T05:45:43;4.85;;;1.73;;
72791;SDS011;60907;53.268;8.764;2022-07-10T05:48:08;10.10;;;1.77;;
72791;SDS011;60907;53.268;8.764;2022-07-10T05:50:35;7.28;;;1.65;;
72791;SDS011;60907;53.268;8.764;2022-07-10T05:53:01;8.57;;;1.30;;
72791;SDS011;60907;53.268;8.764;2022-07-10T05:55:26;8.52;;;2.05;;
72791;SDS011;60907;53.268;8.764;2022-07-10T05:57:51;10.48;;;1.58;;
72791;SDS011;60907;53.268;8.764;2022-07-10T06:00:17;6.72;;;1.35;;
72791;SDS011;60907;53.268;8.764;2022-07-10T06:02:43;9.98;;;2.17;;
72791;SDS011;60907;53.268;8.764;2022-07-10T06:05:09;8.95;;;1.45;;
72791;SDS011;60907;53.268;8.764;2022-07-10T06:07:34;3.80;;;1.13;;
72791;SDS011;60907;53.268;8.764;2022-07-10T06:10:00;4.10;;;1.10;;
72791;SDS011;60907;53.268;8.764;2022-07-10T06:12:26;3.95;;;1.13;;
72791;SDS011;60907;53.268;8.764;2022-07-10T06:14:51;8.30;;;1.20;;
72791;SDS011;60907;53.268;8.764;2022-07-10T06:17:17;6.55;;;1.83;;
72791;SDS011;60907;53.268;8.764;2022-07-10T06:19:42;5.43;;;1.52;;
72791;SDS011;60907;53.268;8.764;2022-07-10T06:22:08;3.95;;;1.90;;
72791;SDS011;60907;53.268;8.764;2022-07-10T06:24:52;8.20;;;1.60;;
72791;SDS011;60907;53.268;8.764;2022-07-10T06:27:17;8.32;;;1.10;;
72791;SDS011;60907;53.268;8.764;2022-07-10T06:29:42;7.97;;;1.25;;
72791;SDS011;60907;53.268;8.764;2022-07-10T06:32:08;6.10;;;1.02;;
72791;SDS011;60907;53.268;8.764;2022-07-10T06:34:33;5.65;;;1.38;;
72791;SDS011;60907;53.268;8.764;2022-07-10T06:36:59;4.53;;;1.30;;
72791;SDS011;60907;53.268;8.764;2022-07-10T06:39:25;6.38;;;1.10;;
72791;SDS011;60907;53.268;8.764;2022-07-10T06:41:50;8.43;;;1.30;;
72791;SDS011;60907;53.268;8.764;2022-07-10T06:44:15;6.93;;;1.50;;
72791;SDS011;60907;53.268;8.764;2022-07-10T06:46:41;6.72;;;1.20;;
72791;SDS011;60907;53.268;8.764;2022-07-10T06:49:06;5.95;;;1.60;;
72791;SDS011;60907;53.268;8.764;2022-07-10T06:51:33;7.30;;;1.90;;
72791;SDS011;60907;53.268;8.764;2022-07-10T06:53:59;9.77;;;1.50;;
72791;SDS011;60907;53.268;8.764;2022-07-10T06:56:24;4.43;;;1.42;;
72791;SDS011;60907;53.268;8.764;2022-07-10T06:58:50;7.53;;;1.73;;
72791;SDS011;60907;53.268;8.764;2022-07-10T07:01:15;11.98;;;1.40;;
72791;SDS011;60907;53.268;8.764;2022-07-10T07:03:41;6.72;;;1.15;;
72791;SDS011;60907;53.268;8.764;2022-07-10T07:06:06;8.73;;;1.40;;
72791;SDS011;60907;53.268;8.764;2022-07-10T07:08:31;7.38;;;1.15;;
72791;SDS011;60907;53.268;8.764;2022-07-10T07:10:57;5.43;;;1.30;;
72791;SDS011;60907;53.268;8.764;2022-07-10T07:13:22;8.20;;;1.70;;
72791;SDS011;60907;53.268;8.764;2022-07-10T07:15:48;9.52;;;1.55;;
72791;SDS011;60907;53.268;8.764;2022-07-10T07:18:25;4.03;;;1.25;;
72791;SDS011;60907;53.268;8.764;2022-07-10T07:21:02;8.40;;;1.45;;
72791;SDS011;60907;53.268;8.764;2022-07-10T07:23:46;9.00;;;1.05;;
72791;SDS011;60907;53.268;8.764;2022-07-10T07:26:12;6.93;;;1.90;;
72791;SDS011;60907;53.268;8.764;2022-07-10T07:28:37;5.10;;;1.10;;
72791;SDS011;60907;53.268;8.764;2022-07-10T07:31:03;9.73;;;1.38;;
72791;SDS011;60907;53.268;8.764;2022-07-10T07:33:28;6.00;;;0.90;;
72791;SDS011;60907;53.268;8.764;2022-07-10T07:35:54;5.53;;;2.08;;
72791;SDS011;60907;53.268;8.764;2022-07-10T07:38:19;7.03;;;1.13;;
72791;SDS011;60907;53.268;8.764;2022-07-10T07:40:45;5.82;;;1.10;;
72791;SDS011;60907;53.268;8.764;2022-07-10T07:43:10;7.32;;;1.10;;
72791;SDS011;60907;53.268;8.764;2022-07-10T07:45:36;11.95;;;1.40;;
72791;SDS011;60907;53.268;8.764;2022-07-10T07:48:02;6.43;;;1.20;;
72791;SDS011;60907;53.268;8.764;2022-07-10T07:50:31;5.32;;;1.33;;
72791;SDS011;60907;53.268;8.764;2022-07-10T07:52:58;7.53;;;1.25;;
72791;SDS011;60907;53.268;8.764;2022-07-10T07:55:28;4.95;;;1.00;;
72791;SDS011;60907;53.268;8.764;2022-07-10T07:57:54;6.95;;;1.23;;
72791;SDS011;60907;53.268;8.764;2022-07-10T08:00:21;4.40;;;1.40;;
72791;SDS011;60907;53.268;8.764;2022-07-10T08:02:48;6.82;;;1.17;;
72791;SDS011;60907;53.268;8.764;2022-07-10T08:05:14;5.85;;;1.50;;
72791;SDS011;60907;53.268;8.764;2022-07-10T08:07:41;3.83;;;1.20;;
72791;SDS011;60907;53.268;8.764;2022-07-10T08:10:08;6.90;;;1.70;;
72791;SDS011;60907;53.268;8.764;2022-07-10T08:12:36;4.88;;;1.20;;
72791;SDS011;60907;53.268;8.764;2022-07-10T08:15:01;5.13;;;1.23;;
72791;SDS011;60907;53.268;8.764;2022-07-10T08:17:27;9.13;;;1.42;;
72791;SDS011;60907;53.268;8.764;2022-07-10T08:19:53;13.05;;;1.30;;
72791;SDS011;60907;53.268;8.764;2022-07-10T08:22:19;8.95;;;1.30;;
72791;SDS011;60907;53.268;8.764;2022-07-10T08:24:44;4.60;;;1.10;;
72791;SDS011;60907;53.268;8.764;2022-07-10T08:27:10;6.45;;;1.17;;
72791;SDS011;60907;53.268;8.764;2022-07-10T08:29:35;5.82;;;1.23;;
72791;SDS011;60907;53.268;8.764;2022-07-10T08:32:00;6.82;;;1.10;;
72791;SDS011;60907;53.268;8.764;2022-07-10T08:34:26;11.13;;;1.85;;
72791;SDS011;60907;53.268;8.764;2022-07-10T08:36:52;8.70;;;1.40;;
72791;SDS011;60907;53.268;8.764;2022-07-10T08:39:18;8.60;;;1.40;;
72791;SDS011;60907;53.268;8.764;2022-07-10T08:41:46;9.13;;;1.30;;
72791;SDS011;60907;53.268;8.764;2022-07-10T08:44:15;8.35;;;1.42;;
72791;SDS011;60907;53.268;8.764;2022-07-10T08:46:41;5.05;;;1.02;;
72791;SDS011;60907;53.268;8.764;2022-07-10T08:49:08;13.65;;;2.00;;
72791;SDS011;60907;53.268;8.764;2022-07-10T08:51:37;5.35;;;1.05;;
72791;SDS011;60907;53.268;8.764;2022-07-10T08:54:13;4.80;;;1.13;;
72791;SDS011;60907;53.268;8.764;2022-07-10T08:56:39;7.70;;;1.08;;
72791;SDS011;60907;53.268;8.764;2022-07-10T08:59:05;8.13;;;1.27;;
72791;SDS011;60907;53.268;8.764;2022-07-10T09:01:32;6.13;;;1.23;;
72791;SDS011;60907;53.268;8.764;2022-07-10T09:03:58;5.25;;;1.05;;
72791;SDS011;60907;53.268;8.764;2022-07-10T09:06:24;8.07;;;1.02;;
72791;SDS011;60907;53.268;8.764;2022-07-10T09:09:04;11.73;;;1.58;;
72791;SDS011;60907;53.268;8.764;2022-07-10T09:11:30;12.52;;;1.35;;
72791;SDS011;60907;53.268;8.764;2022-07-10T09:13:58;8.05;;;0.90;;
72791;SDS011;60907;53.268;8.764;2022-07-10T09:16:28;7.40;;;1.67;;
72791;SDS011;60907;53.268;8.764;2022-07-10T09:18:55;6.10;;;1.08;;
72791;SDS011;60907;53.268;8.764;2022-07-10T09:21:21;5.97;;;1.27;;
72791;SDS011;60907;53.268;8.764;2022-07-10T09:23:47;5.88;;;1.75;;
72791;SDS011;60907;53.268;8.764;2022-07-10T09:26:13;3.72;;;0.95;;
72791;SDS011;60907;53.268;8.764;2022-07-10T09:28:39;4.68;;;1.05;;
72791;SDS011;60907;53.268;8.764;2022-07-10T09:31:04;5.95;;;1.02;;
72791;SDS011;60907;53.268;8.764;2022-07-10T09:33:30;7.18;;;1.20;;
72791;SDS011;60907;53.268;8.764;2022-07-10T09:41:12;5.07;;;1.48;;
72791;SDS011;60907;53.268;8.764;2022-07-10T09:43:43;7.10;;;1.30;;
72791;SDS011;60907;53.268;8.764;2022-07-10T09:46:10;6.57;;;1.30;;
72791;SDS011;60907;53.268;8.764;2022-07-10T09:48:35;6.57;;;1.23;;
72791;SDS011;60907;53.268;8.764;2022-07-10T09:51:01;3.60;;;0.80;;
72791;SDS011;60907;53.268;8.764;2022-07-10T09:53:27;2.67;;;1.13;;
72791;SDS011;60907;53.268;8.764;2022-07-10T09:55:53;5.57;;;1.08;;
72791;SDS011;60907;53.268;8.764;2022-07-10T09:58:20;3.95;;;1.00;;
72791;SDS011;60907;53.268;8.764;2022-07-10T10:00:47;8.48;;;1.05;;
72791;SDS011;60907;53.268;8.764;2022-07-10T10:03:14;8.63;;;1.35;;
72791;SDS011;60907;53.268;8.764;2022-07-10T10:09:23;7.15;;;1.10;;
72791;SDS011;60907;53.268;8.764;2022-07-10T10:11:33;7.28;;;1.40;;
72791;SDS011;60907;53.268;8.764;2022-07-10T10:14:02;7.57;;;1.30;;
72791;SDS011;60907;53.268;8.764;2022-07-10T10:16:28;6.72;;;0.93;;
72791;SDS011;60907;53.268;8.764;2022-07-10T10:18:54;5.63;;;1.08;;
72791;SDS011;60907;53.268;8.764;2022-07-10T10:21:38;4.20;;;0.80;;
72791;SDS011;60907;53.268;8.764;2022-07-10T10:24:04;7.07;;;1.02;;
72791;SDS011;60907;53.268;8.764;2022-07-10T10:26:31;5.40;;;1.13;;
72791;SDS011;60907;53.268;8.764;2022-07-10T10:28:58;6.93;;;1.20;;
72791;SDS011;60907;53.268;8.764;2022-07-10T10:31:26;4.28;;;1.20;;
72791;SDS011;60907;53.268;8.764;2022-07-10T10:33:55;4.15;;;1.00;;
72791;SDS011;60907;53.268;8.764;2022-07-10T10:41:29;6.55;;;0.93;;
72791;SDS011;60907;53.268;8.764;2022-07-10T10:46:33;5.32;;;1.10;;
72791;SDS011;60907;53.268;8.764;2022-07-10T10:49:06;10.98;;;1.33;;
72791;SDS011;60907;53.268;8.764;2022-07-10T10:54:23;4.97;;;1.10;;
72791;SDS011;60907;53.268;8.764;2022-07-10T10:59:45;6.28;;;1.10;;
72791;SDS011;60907;53.268;8.764;2022-07-10T11:04:48;6.53;;;1.23;;
72791;SDS011;60907;53.268;8.764;2022-07-10T11:15:23;5.18;;;0.85;;
72791;SDS011;60907;53.268;8.764;2022-07-10T11:17:49;8.85;;;1.45;;
72791;SDS011;60907;53.268;8.764;2022-07-10T11:20:15;4.03;;;0.98;;
72791;SDS011;60907;53.268;8.764;2022-07-10T11:22:49;3.92;;;0.73;;
72791;SDS011;60907;53.268;8.764;2022-07-10T11:28:08;3.70;;;1.38;;
72791;SDS011;60907;53.268;8.764;2022-07-10T11:30:45;5.57;;;1.00;;
72791;SDS011;60907;53.268;8.764;2022-07-10T11:33:20;6.35;;;1.23;;
72791;SDS011;60907;53.268;8.764;2022-07-10T11:35:46;7.65;;;1.65;;
72791;SDS011;60907;53.268;8.764;2022-07-10T11:38:18;12.30;;;2.33;;
72791;SDS011;60907;53.268;8.764;2022-07-10T11:40:47;4.90;;;1.17;;
72791;SDS011;60907;53.268;8.764;2022-07-10T11:43:12;4.90;;;1.67;;
72791;SDS011;60907;53.268;8.764;2022-07-10T11:45:42;8.40;;;1.33;;
72791;SDS011;60907;53.268;8.764;2022-07-10T11:48:08;3.72;;;0.90;;
72791;SDS011;60907;53.268;8.764;2022-07-10T11:50:42;6.00;;;1.02;;
72791;SDS011;60907;53.268;8.764;2022-07-10T11:53:08;4.43;;;0.85;;
72791;SDS011;60907;53.268;8.764;2022-07-10T11:55:34;5.33;;;0.87;;
72791;SDS011;60907;53.268;8.764;2022-07-10T11:58:15;5.38;;;0.80;;
72791;SDS011;60907;53.268;8.764;2022-07-10T12:00:41;4.55;;;0.85;;
72791;SDS011;60907;53.268;8.764;2022-07-10T12:03:19;4.45;;;1.05;;
72791;SDS011;60907;53.268;8.764;2022-07-10T12:05:45;8.52;;;1.23;;
72791;SDS011;60907;53.268;8.764;2022-07-10T12:08:11;5.78;;;1.00;;
72791;SDS011;60907;53.268;8.764;2022-07-10T12:10:38;5.22;;;0.80;;
72791;SDS011;60907;53.268;8.764;2022-07-10T12:13:07;2.90;;;0.60;;
72791;SDS011;60907;53.268;8.764;2022-07-10T12:15:37;3.78;;;0.70;;
72791;SDS011;60907;53.268;8.764;2022-07-10T12:18:06;4.78;;;0.70;;
72791;SDS011;60907;53.268;8.764;2022-07-10T12:20:33;4.35;;;1.00;;
72791;SDS011;60907;53.268;8.764;2022-07-10T12:22:59;4.45;;;0.82;;
72791;SDS011;60907;53.268;8.764;2022-07-10T12:25:25;7.72;;;1.05;;
72791;SDS011;60907;53.268;8.764;2022-07-10T12:27:59;3.80;;;0.82;;
72791;SDS011;60907;53.268;8.764;2022-07-10T12:30:44;7.03;;;0.80;;
72791;SDS011;60907;53.268;8.764;2022-07-10T12:33:11;2.88;;;0.68;;
72791;SDS011;60907;53.268;8.764;2022-07-10T12:38:21;1.63;;;0.45;;
72791;SDS011;60907;53.268;8.764;2022-07-10T12:40:49;0.50;;;0.22;;
72791;SDS011;60907;53.268;8.764;2022-07-10T12:43:28;2.50;;;0.30;;
72791;SDS011;60907;53.268;8.764;2022-07-10T12:48:41;3.15;;;0.38;;
72791;SDS011;60907;53.268;8.764;2022-07-10T12:51:25;2.03;;;0.20;;
72791;SDS011;60907;53.268;8.764;2022-07-10T12:53:52;2.50;;;0.38;;
72791;SDS011;60907;53.268;8.764;2022-07-10T12:56:36;1.25;;;0.60;;
72791;SDS011;60907;53.268;8.764;2022-07-10T13:01:43;2.10;;;0.57;;
72791;SDS011;60907;53.268;8.764;2022-07-10T13:04:09;1.30;;;0.47;;
72791;SDS011;60907;53.268;8.764;2022-07-10T13:06:35;2.83;;;0.50;;
72791;SDS011;60907;53.268;8.764;2022-07-10T13:09:02;2.22;;;0.60;;
72791;SDS011;60907;53.268;8.764;2022-07-10T13:11:33;5.35;;;0.70;;
72791;SDS011;60907;53.268;8.764;2022-07-10T13:13:59;2.47;;;0.70;;
72791;SDS011;60907;53.268;8.764;2022-07-10T13:16:24;2.28;;;0.50;;
72791;SDS011;60907;53.268;8.764;2022-07-10T13:18:50;2.85;;;0.70;;
72791;SDS011;60907;53.268;8.764;2022-07-10T13:21:15;2.22;;;0.60;;
72791;SDS011;60907;53.268;8.764;2022-07-10T13:23:41;4.45;;;0.70;;
72791;SDS011;60907;53.268;8.764;2022-07-10T13:26:08;3.35;;;0.80;;
72791;SDS011;60907;53.268;8.764;2022-07-10T13:28:33;6.55;;;0.70;;
72791;SDS011;60907;53.268;8.764;2022-07-10T13:30:59;5.13;;;0.93;;
72791;SDS011;60907;53.268;8.764;2022-07-10T13:33:25;3.03;;;0.90;;
72791;SDS011;60907;53.268;8.764;2022-07-10T13:35:51;6.40;;;0.77;;
72791;SDS011;60907;53.268;8.764;2022-07-10T13:38:17;5.68;;;0.70;;
72791;SDS011;60907;53.268;8.764;2022-07-10T13:40:43;4.05;;;0.73;;
72791;SDS011;60907;53.268;8.764;2022-07-10T13:43:11;3.55;;;0.80;;
72791;SDS011;60907;53.268;8.764;2022-07-10T13:45:38;3.20;;;0.57;;
72791;SDS011;60907;53.268;8.764;2022-07-10T13:48:08;9.73;;;0.90;;
72791;SDS011;60907;53.268;8.764;2022-07-10T13:50:34;6.97;;;0.75;;
72791;SDS011;60907;53.268;8.764;2022-07-10T13:53:01;4.53;;;0.93;;
72791;SDS011;60907;53.268;8.764;2022-07-10T13:55:26;4.90;;;0.70;;
72791;SDS011;60907;53.268;8.764;2022-07-10T13:57:52;3.47;;;0.50;;
72791;SDS011;60907;53.268;8.764;2022-07-10T14:00:18;4.07;;;0.60;;
72791;SDS011;60907;53.268;8.764;2022-07-10T14:02:44;2.65;;;0.60;;
72791;SDS011;60907;53.268;8.764;2022-07-10T14:05:10;4.80;;;0.70;;
72791;SDS011;60907;53.268;8.764;2022-07-10T14:07:35;4.78;;;1.00;;
72791;SDS011;60907;53.268;8.764;2022-07-10T14:10:01;2.00;;;0.95;;
72791;SDS011;60907;53.268;8.764;2022-07-10T14:12:26;3.65;;;0.88;;
72791;SDS011;60907;53.268;8.764;2022-07-10T14:14:52;2.85;;;0.50;;
72791;SDS011;60907;53.268;8.764;2022-07-10T14:17:17;1.88;;;0.63;;
72791;SDS011;60907;53.268;8.764;2022-07-10T14:19:43;2.75;;;0.52;;
72791;SDS011;60907;53.268;8.764;2022-07-10T14:22:08;3.20;;;0.70;;
72791;SDS011;60907;53.268;8.764;2022-07-10T14:24:34;3.95;;;0.77;;
72791;SDS011;60907;53.268;8.764;2022-07-10T14:26:59;1.83;;;0.60;;
72791;SDS011;60907;53.268;8.764;2022-07-10T14:29:25;1.98;;;0.52;;
72791;SDS011;60907;53.268;8.764;2022-07-10T14:31:50;3.58;;;0.88;;
72791;SDS011;60907;53.268;8.764;2022-07-10T14:34:17;3.75;;;1.00;;
72791;SDS011;60907;53.268;8.764;2022-07-10T14:36:43;4.38;;;0.77;;
72791;SDS011;60907;53.268;8.764;2022-07-10T14:39:08;4.00;;;0.95;;
72791;SDS011;60907;53.268;8.764;2022-07-10T14:41:34;2.80;;;0.50;;
72791;SDS011;60907;53.268;8.764;2022-07-10T14:43:59;3.25;;;0.57;;
72791;SDS011;60907;53.268;8.764;2022-07-10T14:46:25;2.30;;;0.70;;
72791;SDS011;60907;53.268;8.764;2022-07-10T14:48:51;2.83;;;0.85;;
72791;SDS011;60907;53.268;8.764;2022-07-10T14:51:16;3.85;;;0.52;;
72791;SDS011;60907;53.268;8.764;2022-07-10T14:53:42;2.45;;;0.82;;
72791;SDS011;60907;53.268;8.764;2022-07-10T14:56:10;3.72;;;0.40;;
72791;SDS011;60907;53.268;8.764;2022-07-10T14:58:36;2.78;;;0.60;;
72791;SDS011;60907;53.268;8.764;2022-07-10T15:01:02;4.78;;;0.57;;
72791;SDS011;60907;53.268;8.764;2022-07-10T15:03:27;1.98;;;0.50;;
72791;SDS011;60907;53.268;8.764;2022-07-10T15:05:53;2.33;;;0.50;;
72791;SDS011;60907;53.268;8.764;2022-07-10T15:08:21;1.20;;;0.30;;
72791;SDS011;60907;53.268;8.764;2022-07-10T15:10:47;2.15;;;0.20;;
72791;SDS011;60907;53.268;8.764;2022-07-10T15:13:13;2.13;;;0.60;;
